Time;durP1;ratioP1;P1;durP2;ratioP2;P2;SDS_P1;SDS_P2;PMS_P1;PMS_P2;Temp;Humidity;BMP_temperature;BMP_pressure;BME280_temperature;BME280_humidity;BME280_pressure;Samples;Min_cycle;Max_cycle;Signal;HPM_P1;HPM_P2
2022/12/09 00:00:24;;;;;;;;;;;2.90;1.00;;;;;;6127699;23;19901;-76
2022/12/09 00:02:50;;;;;;;;;;;2.80;1.00;;;;;;6127001;23;20319;-76
2022/12/09 00:05:16;;;;;;;;;;;2.90;1.00;;;;;;6127561;23;19928;-77
2022/12/09 00:07:42;;;;;;;;;;;3.00;1.00;;;;;;6127676;23;20316;-77
2022/12/09 00:10:07;;;;;;;;;;;2.90;1.00;;;;;;6127497;23;20347;-75
2022/12/09 00:12:33;;;;;;;;;;;3.10;1.00;;;;;;6127290;23;19911;-76
2022/12/09 00:14:58;;;;;;;;;;;3.00;1.00;;;;;;6127244;23;20379;-76
2022/12/09 00:17:24;;;;;;;;;;;3.10;1.00;;;;;;6127444;23;20015;-77
2022/12/09 00:19:49;;;;;;;;;;;3.10;1.00;;;;;;6127345;23;19908;-76
2022/12/09 00:22:15;;;;;;;;;;;3.00;1.00;;;;;;6127170;23;20236;-77
2022/12/09 00:24:41;;;;;;;;;;;3.10;1.00;;;;;;6127263;23;19980;-77
2022/12/09 00:27:06;;;;;;;;;;;3.00;1.00;;;;;;6101410;23;19901;-77
2022/12/09 00:29:32;;;;;;;;;;;3.00;1.00;;;;;;6127419;23;19968;-77
2022/12/09 00:31:57;;;;;;;;;;;3.00;1.00;;;;;;6126939;23;19919;-77
2022/12/09 00:34:23;;;;;;;;;;;3.00;1.00;;;;;;6127209;23;19908;-77
2022/12/09 00:36:49;;;;;;;;;;;3.00;1.00;;;;;;6127199;23;19907;-76
2022/12/09 00:39:14;;;;;;;;;;;3.00;1.00;;;;;;6127123;23;20249;-76
2022/12/09 00:41:40;;;;;;;;;;;2.90;1.00;;;;;;6127242;23;20320;-76
2022/12/09 00:44:05;;;;;;;;;;;2.90;1.00;;;;;;6127404;23;19916;-76
2022/12/09 00:46:31;;;;;;;;;;;3.10;1.00;;;;;;6127081;23;19901;-76
2022/12/09 00:48:56;;;;;;;;;;;2.90;1.00;;;;;;6127065;23;19932;-75
2022/12/09 00:51:23;;;;;;;;;;;2.80;1.00;;;;;;6127200;23;20284;-77
2022/12/09 00:53:53;;;;;;;;;;;2.70;1.00;;;;;;6127129;23;20213;-76
2022/12/09 00:56:27;;;;;;;;;;;2.50;1.00;;;;;;6101106;23;20247;-76
2022/12/09 00:58:52;;;;;;;;;;;2.70;1.00;;;;;;6127536;23;19907;-76
2022/12/09 01:01:18;;;;;;;;;;;2.80;1.00;;;;;;6126717;23;20282;-76
2022/12/09 01:03:43;;;;;;;;;;;2.80;1.00;;;;;;6126630;23;19913;-77
2022/12/09 01:06:10;;;;;;;;;;;2.90;1.00;;;;;;6127088;23;20375;-77
2022/12/09 01:08:35;;;;;;;;;;;2.90;1.00;;;;;;6126839;23;19901;-76
2022/12/09 01:11:06;;;;;;;;;;;2.80;1.00;;;;;;6126922;23;19924;-76
2022/12/09 01:13:32;;;;;;;;;;;2.90;1.00;;;;;;6127103;23;19940;-78
2022/12/09 01:15:57;;;;;;;;;;;2.90;1.00;;;;;;6127183;23;19967;-76
2022/12/09 01:18:23;;;;;;;;;;;2.80;1.00;;;;;;6127007;23;19901;-76
2022/12/09 01:20:58;;;;;;;;;;;2.80;1.00;;;;;;6127012;23;19901;-76
2022/12/09 01:23:23;;;;;;;;;;;2.70;1.00;;;;;;6126965;23;19951;-76
2022/12/09 01:25:49;;;;;;;;;;;2.60;1.00;;;;;;6127010;23;19901;-75
2022/12/09 01:28:15;;;;;;;;;;;2.60;1.00;;;;;;6127120;23;19901;-76
2022/12/09 01:30:40;;;;;;;;;;;2.50;1.00;;;;;;6126705;23;19901;-76
2022/12/09 01:33:06;;;;;;;;;;;2.50;1.00;;;;;;6126703;23;20209;-77
2022/12/09 01:35:31;;;;;;;;;;;2.50;1.00;;;;;;6126895;23;19903;-76
2022/12/09 01:37:57;;;;;;;;;;;2.60;1.00;;;;;;6127011;23;19904;-76
2022/12/09 01:40:23;;;;;;;;;;;2.60;1.00;;;;;;6126849;23;19901;-76
2022/12/09 01:42:49;;;;;;;;;;;2.50;1.00;;;;;;6126939;23;19973;-76
2022/12/09 01:45:20;;;;;;;;;;;2.50;1.00;;;;;;6127044;23;19901;-77
2022/12/09 01:47:47;;;;;;;;;;;2.40;1.00;;;;;;6126992;23;19984;-76
2022/12/09 01:50:13;;;;;;;;;;;2.20;1.00;;;;;;6126932;23;20346;-77
2022/12/09 01:52:39;;;;;;;;;;;2.40;49.30;;;;;;6128501;23;19987;-77
2022/12/09 01:55:05;;;;;;;;;;;2.60;1.00;;;;;;6128520;23;19901;-77
2022/12/09 01:57:31;;;;;;;;;;;2.60;1.00;;;;;;6128855;23;20406;-76
2022/12/09 01:59:56;;;;;;;;;;;2.60;1.00;;;;;;6128543;23;19936;-76
2022/12/09 02:02:23;;;;;;;;;;;2.50;1.00;;;;;;6128548;23;19955;-78
2022/12/09 02:04:49;;;;;;;;;;;2.30;1.00;;;;;;6101865;23;20247;-76
2022/12/09 02:07:17;;;;;;;;;;;2.30;1.00;;;;;;6128470;23;19901;-77
2022/12/09 02:09:42;;;;;;;;;;;2.20;1.00;;;;;;6128570;23;19980;-76
2022/12/09 02:12:23;;;;;;;;;;;2.20;1.00;;;;;;6128335;23;19905;-76
2022/12/09 02:15:07;;;;;;;;;;;2.30;1.00;;;;;;6128564;23;19940;-75
2022/12/09 02:17:40;;;;;;;;;;;2.30;1.00;;;;;;6128345;23;19975;-76
2022/12/09 02:20:11;;;;;;;;;;;2.50;1.00;;;;;;6126765;23;19947;-76
2022/12/09 02:22:40;;;;;;;;;;;2.30;1.00;;;;;;6128649;23;19951;-76
2022/12/09 02:25:09;;;;;;;;;;;2.50;1.00;;;;;;6128381;23;19928;-77
2022/12/09 02:27:49;;;;;;;;;;;2.50;1.00;;;;;;6128222;23;19901;-76
2022/12/09 02:30:20;;;;;;;;;;;2.50;1.00;;;;;;6102320;23;19901;-76
2022/12/09 02:32:45;;;;;;;;;;;2.50;1.00;;;;;;6129287;23;19911;-76
2022/12/09 02:35:14;;;;;;;;;;;2.40;1.00;;;;;;6128222;23;19980;-76
2022/12/09 02:37:59;;;;;;;;;;;2.30;99.90;;;;;;6128260;23;19901;-76
2022/12/09 02:40:31;;;;;;;;;;;2.20;1.00;;;;;;6128501;23;19901;-77
2022/12/09 02:42:58;;;;;;;;;;;2.20;1.00;;;;;;6128220;23;19901;-77
2022/12/09 02:45:25;;;;;;;;;;;2.20;1.00;;;;;;6128209;23;19956;-77
2022/12/09 02:47:51;;;;;;;;;;;2.30;1.00;;;;;;6128743;23;19928;-76
2022/12/09 02:50:20;;;;;;;;;;;2.20;1.00;;;;;;6128015;23;20324;-76
2022/12/09 02:52:46;;;;;;;;;;;2.30;1.00;;;;;;6128042;23;20247;-77
2022/12/09 02:55:13;;;;;;;;;;;2.50;1.00;;;;;;6128146;23;19901;-76
2022/12/09 02:57:39;;;;;;;;;;;2.60;99.90;;;;;;6127953;23;19901;-77
2022/12/09 03:00:06;;;;;;;;;;;2.70;99.90;;;;;;6128235;23;19987;-76
2022/12/09 03:02:33;;;;;;;;;;;2.70;99.90;;;;;;6127618;23;19901;-76
2022/12/09 03:05:18;;;;;;;;;;;2.70;99.90;;;;;;6127277;23;19967;-76
2022/12/09 03:07:46;;;;;;;;;;;2.70;99.90;;;;;;6127864;23;19900;-76
2022/12/09 03:10:35;;;;;;;;;;;2.70;99.90;;;;;;6128305;23;20304;-76
2022/12/09 03:13:05;;;;;;;;;;;2.80;99.90;;;;;;6089986;23;19905;-77
2022/12/09 03:15:34;;;;;;;;;;;2.90;99.90;;;;;;6127738;23;19900;-76
2022/12/09 03:18:01;;;;;;;;;;;3.00;99.90;;;;;;6128007;23;19925;-76
2022/12/09 03:20:28;;;;;;;;;;;3.00;99.90;;;;;;6127608;23;20313;-77
2022/12/09 03:22:57;;;;;;;;;;;2.80;99.90;;;;;;6128044;23;19907;-77
2022/12/09 03:25:26;;;;;;;;;;;2.80;99.90;;;;;;6127907;23;19940;-76
2022/12/09 03:27:59;;;;;;;;;;;2.80;99.90;;;;;;6127717;23;19900;-77
2022/12/09 03:30:25;;;;;;;;;;;2.90;99.90;;;;;;6128090;23;19907;-77
2022/12/09 03:32:51;;;;;;;;;;;2.70;99.90;;;;;;6127637;23;19987;-75
2022/12/09 03:35:38;;;;;;;;;;;2.80;99.90;;;;;;6127618;23;19905;-77
2022/12/09 03:38:06;;;;;;;;;;;2.90;99.90;;;;;;6127438;23;19907;-76
2022/12/09 03:40:32;;;;;;;;;;;3.10;99.90;;;;;;6101555;23;19943;-77
2022/12/09 03:43:04;;;;;;;;;;;3.10;99.90;;;;;;6127645;23;19907;-76
2022/12/09 03:45:30;;;;;;;;;;;3.10;99.90;;;;;;6127190;23;19904;-77
2022/12/09 03:47:55;;;;;;;;;;;3.20;99.90;;;;;;6127525;23;20312;-76
2022/12/09 03:50:22;;;;;;;;;;;3.20;99.90;;;;;;6127521;23;19905;-77
2022/12/09 03:52:50;;;;;;;;;;;3.10;99.90;;;;;;6101450;23;19909;-76
2022/12/09 03:55:23;;;;;;;;;;;3.10;99.90;;;;;;6101342;23;19901;-76
2022/12/09 03:57:51;;;;;;;;;;;3.10;99.90;;;;;;6127375;23;20312;-76
2022/12/09 04:00:17;;;;;;;;;;;3.10;99.90;;;;;;6101367;23;20336;-76
2022/12/09 04:02:43;;;;;;;;;;;3.10;99.90;;;;;;6127358;23;19901;-76
2022/12/09 04:05:09;;;;;;;;;;;3.10;99.90;;;;;;6127566;23;20324;-76
2022/12/09 04:07:34;;;;;;;;;;;2.90;99.90;;;;;;6127378;23;20332;-77
2022/12/09 04:10:00;;;;;;;;;;;2.80;99.90;;;;;;6127444;23;19952;-76
2022/12/09 04:12:26;;;;;;;;;;;2.90;99.90;;;;;;6127145;23;19912;-76
2022/12/09 04:14:51;;;;;;;;;;;3.00;1.00;;;;;;6127268;23;19908;-76
2022/12/09 04:17:17;;;;;;;;;;;2.90;1.00;;;;;;6127348;23;19929;-77
2022/12/09 04:19:42;;;;;;;;;;;2.80;1.00;;;;;;6127313;23;19901;-75
2022/12/09 04:22:08;;;;;;;;;;;2.70;1.00;;;;;;6127300;23;19948;-76
2022/12/09 04:24:34;;;;;;;;;;;2.60;1.00;;;;;;6127203;23;19983;-77
2022/12/09 04:26:59;;;;;;;;;;;2.80;1.00;;;;;;6127450;23;19901;-77
2022/12/09 04:29:25;;;;;;;;;;;2.80;1.00;;;;;;6127306;23;19901;-76
2022/12/09 04:31:50;;;;;;;;;;;2.70;1.00;;;;;;6127140;23;20287;-76
2022/12/09 04:34:16;;;;;;;;;;;2.90;1.00;;;;;;6127417;23;20236;-76
2022/12/09 04:36:41;;;;;;;;;;;3.00;1.00;;;;;;6127182;23;19939;-76
2022/12/09 04:39:07;;;;;;;;;;;3.00;1.00;;;;;;6127201;23;19905;-78
2022/12/09 04:41:32;;;;;;;;;;;2.80;1.00;;;;;;6127245;23;19901;-76
2022/12/09 04:43:59;;;;;;;;;;;2.70;1.00;;;;;;6127135;23;20266;-76
2022/12/09 04:46:25;;;;;;;;;;;2.60;1.00;;;;;;6127343;23;19901;-76
2022/12/09 04:48:51;;;;;;;;;;;2.70;1.00;;;;;;6127295;23;19907;-77
2022/12/09 04:51:16;;;;;;;;;;;2.60;1.00;;;;;;6126909;23;20320;-77
2022/12/09 04:53:42;;;;;;;;;;;2.60;1.00;;;;;;6126952;23;19904;-76
2022/12/09 04:56:12;;;;;;;;;;;2.60;1.00;;;;;;6101012;23;19952;-75
2022/12/09 04:58:38;;;;;;;;;;;2.80;1.00;;;;;;6127078;23;20366;-77
2022/12/09 05:01:07;;;;;;;;;;;2.80;1.00;;;;;;6126975;23;19909;-77
2022/12/09 05:03:33;;;;;;;;;;;2.70;1.00;;;;;;6126963;23;19913;-77
2022/12/09 05:06:01;;;;;;;;;;;2.60;1.00;;;;;;6126977;23;19901;-77
2022/12/09 05:08:26;;;;;;;;;;;2.70;1.00;;;;;;6127089;23;20343;-76
2022/12/09 05:10:52;;;;;;;;;;;2.90;1.00;;;;;;6127538;23;19975;-77
2022/12/09 05:13:18;;;;;;;;;;;2.90;1.00;;;;;;6127194;23;19904;-77
2022/12/09 05:15:43;;;;;;;;;;;3.00;1.00;;;;;;6127069;23;20284;-76
2022/12/09 05:18:09;;;;;;;;;;;2.90;1.00;;;;;;6127061;23;19901;-76
2022/12/09 05:20:37;;;;;;;;;;;2.90;1.00;;;;;;6126979;23;19925;-76
2022/12/09 05:23:02;;;;;;;;;;;2.90;1.00;;;;;;6100964;23;20257;-76
2022/12/09 05:25:28;;;;;;;;;;;2.90;1.00;;;;;;6128025;23;19952;-77
2022/12/09 05:27:53;;;;;;;;;;;3.10;1.00;;;;;;6128841;23;19935;-76
2022/12/09 05:30:19;;;;;;;;;;;3.00;1.00;;;;;;6128761;23;20371;-76
2022/12/09 05:32:44;;;;;;;;;;;3.10;1.00;;;;;;6128827;23;19904;-76
2022/12/09 05:35:10;;;;;;;;;;;2.90;1.00;;;;;;6102858;23;19924;-76
2022/12/09 05:37:36;;;;;;;;;;;2.90;1.00;;;;;;6129014;23;19901;-77
2022/12/09 05:40:01;;;;;;;;;;;3.00;1.00;;;;;;6128703;23;20284;-76
2022/12/09 05:42:27;;;;;;;;;;;3.10;1.00;;;;;;6128880;23;19911;-77
2022/12/09 05:44:53;;;;;;;;;;;2.90;1.00;;;;;;6128766;23;20251;-77
2022/12/09 05:47:19;;;;;;;;;;;2.80;1.00;;;;;;6102752;23;19901;-76
2022/12/09 05:49:44;;;;;;;;;;;2.60;1.00;;;;;;6128936;23;20028;-76
2022/12/09 05:52:13;;;;;;;;;;;2.70;1.00;;;;;;6128838;23;19908;-77
2022/12/09 05:54:39;;;;;;;;;;;2.70;1.00;;;;;;6128574;23;19901;-76
2022/12/09 05:57:04;;;;;;;;;;;2.90;1.00;;;;;;6129145;23;19900;-76
2022/12/09 05:59:30;;;;;;;;;;;3.10;1.00;;;;;;6128465;23;19907;-77
2022/12/09 06:01:56;;;;;;;;;;;3.20;1.00;;;;;;6102515;23;19908;-77
2022/12/09 06:04:21;;;;;;;;;;;3.20;1.00;;;;;;6128158;23;19913;-76
2022/12/09 06:06:47;;;;;;;;;;;3.10;99.90;;;;;;6128554;23;20323;-76
2022/12/09 06:09:12;;;;;;;;;;;3.10;99.90;;;;;;6128724;23;19936;-77
2022/12/09 06:11:39;;;;;;;;;;;3.00;99.90;;;;;;6128446;23;19900;-76
2022/12/09 06:14:08;;;;;;;;;;;2.90;99.90;;;;;;6128483;23;19927;-75
2022/12/09 06:16:33;;;;;;;;;;;2.70;99.90;;;;;;6128383;23;19901;-77
2022/12/09 06:18:59;;;;;;;;;;;2.60;1.00;;;;;;6128411;23;20019;-77
2022/12/09 06:21:25;;;;;;;;;;;2.60;99.90;;;;;;6128699;23;19948;-76
2022/12/09 06:23:51;;;;;;;;;;;2.50;99.90;;;;;;6128339;23;20236;-78
2022/12/09 06:26:18;;;;;;;;;;;2.30;99.90;;;;;;6128738;23;19901;-78
2022/12/09 06:28:44;;;;;;;;;;;2.20;99.90;;;;;;6128364;23;19916;-77
2022/12/09 06:31:09;;;;;;;;;;;2.10;1.00;;;;;;6128385;23;19979;-76
2022/12/09 06:33:35;;;;;;;;;;;2.10;1.00;;;;;;6128219;23;19911;-77
2022/12/09 06:36:01;;;;;;;;;;;2.00;1.00;;;;;;6128385;23;19901;-77
2022/12/09 06:38:27;;;;;;;;;;;2.00;1.00;;;;;;6127980;23;19955;-77
2022/12/09 06:40:52;;;;;;;;;;;2.00;1.00;;;;;;6128159;23;19928;-77
2022/12/09 06:43:18;;;;;;;;;;;1.90;1.00;;;;;;6128177;23;19907;-77
2022/12/09 06:45:43;;;;;;;;;;;1.80;1.00;;;;;;6128204;23;20312;-77
2022/12/09 06:48:09;;;;;;;;;;;1.80;1.00;;;;;;6102069;23;19936;-77
2022/12/09 06:50:35;;;;;;;;;;;1.60;1.00;;;;;;6127892;23;19955;-76
2022/12/09 06:53:01;;;;;;;;;;;1.70;1.00;;;;;;6128123;23;19904;-76
2022/12/09 06:55:26;;;;;;;;;;;1.60;1.00;;;;;;6127971;23;19932;-76
2022/12/09 06:57:52;;;;;;;;;;;1.60;1.00;;;;;;6127761;23;19908;-76
2022/12/09 07:00:17;;;;;;;;;;;1.60;1.00;;;;;;6128127;23;20343;-78
2022/12/09 07:02:43;;;;;;;;;;;1.60;1.00;;;;;;6128050;23;19907;-77
2022/12/09 07:05:09;;;;;;;;;;;1.60;1.00;;;;;;6127848;23;19951;-76
2022/12/09 07:07:34;;;;;;;;;;;1.60;1.00;;;;;;6127862;23;19901;-77
2022/12/09 07:10:07;;;;;;;;;;;1.50;99.90;;;;;;6128011;23;19901;-77
2022/12/09 07:12:32;;;;;;;;;;;1.50;99.90;;;;;;6127607;23;19912;-76
2022/12/09 07:14:58;;;;;;;;;;;1.40;1.00;;;;;;6127928;23;19901;-77
2022/12/09 07:17:23;;;;;;;;;;;1.30;1.00;;;;;;6127898;23;19905;-76
2022/12/09 07:19:49;;;;;;;;;;;1.30;1.00;;;;;;6127862;23;19979;-75
2022/12/09 07:22:15;;;;;;;;;;;1.30;1.00;;;;;;6101641;23;19952;-77
2022/12/09 07:24:40;;;;;;;;;;;1.20;1.00;;;;;;6127594;23;19901;-78
2022/12/09 07:27:07;;;;;;;;;;;1.20;1.00;;;;;;6127713;23;20323;-77
2022/12/09 07:29:34;;;;;;;;;;;1.10;1.00;;;;;;6127535;23;19907;-77
2022/12/09 07:31:59;;;;;;;;;;;1.20;1.00;;;;;;6127501;23;20296;-77
2022/12/09 07:34:25;;;;;;;;;;;1.40;1.00;;;;;;6127693;23;19936;-77
2022/12/09 07:36:50;;;;;;;;;;;1.50;1.00;;;;;;6127791;23;19905;-77
2022/12/09 07:39:17;;;;;;;;;;;1.50;1.00;;;;;;6127701;23;19983;-76
2022/12/09 07:41:43;;;;;;;;;;;1.40;1.00;;;;;;6127614;23;19900;-76
2022/12/09 07:44:09;;;;;;;;;;;1.50;1.00;;;;;;6127499;23;19932;-76
2022/12/09 07:46:37;;;;;;;;;;;1.50;1.00;;;;;;6127699;23;19900;-77
2022/12/09 07:49:03;;;;;;;;;;;1.40;1.00;;;;;;6127202;23;20303;-76
2022/12/09 07:51:29;;;;;;;;;;;1.50;22.50;;;;;;6127551;23;19948;-76
2022/12/09 07:53:55;;;;;;;;;;;1.50;1.00;;;;;;6127338;23;19905;-78
2022/12/09 07:56:21;;;;;;;;;;;1.40;1.00;;;;;;6101439;23;20284;-76
2022/12/09 07:58:47;;;;;;;;;;;1.40;1.00;;;;;;6126970;23;19924;-77
2022/12/09 08:01:17;;;;;;;;;;;1.50;1.00;;;;;;6127779;23;19901;-77
2022/12/09 08:03:43;;;;;;;;;;;1.50;1.00;;;;;;6127075;23;19960;-77
2022/12/09 08:06:12;;;;;;;;;;;1.50;1.00;;;;;;6127476;23;20275;-77
2022/12/09 08:08:38;;;;;;;;;;;1.50;1.00;;;;;;6126853;23;19980;-76
2022/12/09 08:11:15;;;;;;;;;;;1.60;1.00;;;;;;6127374;23;19943;-76
2022/12/09 08:13:41;;;;;;;;;;;1.60;1.00;;;;;;6101222;23;19904;-76
2022/12/09 08:16:08;;;;;;;;;;;1.60;1.00;;;;;;6127424;23;19955;-77
2022/12/09 08:18:34;;;;;;;;;;;1.60;1.00;;;;;;6127378;23;19901;-78
2022/12/09 08:21:04;;;;;;;;;;;1.60;1.00;;;;;;6127413;23;19900;-77
2022/12/09 08:23:30;;;;;;;;;;;1.70;1.00;;;;;;6127353;23;19980;-77
2022/12/09 08:25:55;;;;;;;;;;;1.70;99.90;;;;;;6127200;23;19928;-76
2022/12/09 08:28:24;;;;;;;;;;;1.80;99.90;;;;;;6100946;23;19901;-76
2022/12/09 08:30:50;;;;;;;;;;;2.00;1.00;;;;;;6127342;23;19977;-77
2022/12/09 08:33:16;;;;;;;;;;;2.20;99.90;;;;;;6127188;23;19905;-76
2022/12/09 08:35:42;;;;;;;;;;;2.30;99.90;;;;;;6127278;23;19901;-77
2022/12/09 08:38:07;;;;;;;;;;;2.40;99.90;;;;;;6127419;23;19901;-77
2022/12/09 08:40:33;;;;;;;;;;;2.60;99.90;;;;;;6127536;23;20349;-77
2022/12/09 08:42:59;;;;;;;;;;;2.80;99.90;;;;;;6126744;23;19948;-76
2022/12/09 08:45:24;;;;;;;;;;;2.50;99.90;;;;;;6101174;23;19901;-76
2022/12/09 08:47:50;;;;;;;;;;;2.30;99.90;;;;;;6126998;23;19936;-76
2022/12/09 08:50:16;;;;;;;;;;;2.40;99.90;;;;;;6127051;23;19901;-75
2022/12/09 08:52:44;;;;;;;;;;;2.70;99.90;;;;;;6127035;23;19995;-77
2022/12/09 08:55:10;;;;;;;;;;;2.90;99.90;;;;;;6127515;23;19900;-76
2022/12/09 08:57:35;;;;;;;;;;;3.00;99.90;;;;;;6127224;23;19999;-77
2022/12/09 09:00:01;;;;;;;;;;;3.00;99.90;;;;;;6127636;23;19916;-76
2022/12/09 09:02:27;;;;;;;;;;;3.10;99.90;;;;;;6129082;23;19901;-76
2022/12/09 09:04:52;;;;;;;;;;;3.20;99.90;;;;;;6128674;23;20287;-77
2022/12/09 09:07:18;;;;;;;;;;;3.20;99.90;;;;;;6128576;23;19905;-77
2022/12/09 09:09:44;;;;;;;;;;;3.30;99.90;;;;;;6128886;23;19907;-77
2022/12/09 09:12:09;;;;;;;;;;;3.50;99.90;;;;;;6128924;23;19901;-76
2022/12/09 09:14:35;;;;;;;;;;;3.70;99.90;;;;;;6128934;23;20288;-77
2022/12/09 09:17:01;;;;;;;;;;;3.80;99.90;;;;;;6128810;23;19901;-76
2022/12/09 09:19:26;;;;;;;;;;;4.00;99.90;;;;;;6128892;23;19928;-78
2022/12/09 09:21:52;;;;;;;;;;;3.80;99.90;;;;;;6128599;23;20332;-76
2022/12/09 09:24:20;;;;;;;;;;;4.20;99.90;;;;;;6129105;23;19905;-74
2022/12/09 09:26:45;;;;;;;;;;;4.90;99.90;;;;;;6129680;23;19916;-75
2022/12/09 09:29:12;;;;;;;;;;;5.40;99.90;;;;;;6127465;23;19901;-74
2022/12/09 09:31:37;;;;;;;;;;;5.80;99.90;;;;;;6129488;23;19905;-78
2022/12/09 09:34:03;;;;;;;;;;;6.40;99.90;;;;;;6128800;23;19960;-75
2022/12/09 09:36:28;;;;;;;;;;;7.30;99.90;;;;;;6102796;23;20232;-73
2022/12/09 09:38:55;;;;;;;;;;;7.90;99.90;;;;;;6128860;23;19908;-77
2022/12/09 09:41:38;;;;;;;;;;;9.00;99.90;;;;;;6129072;23;20216;-74
2022/12/09 09:44:13;;;;;;;;;;;9.70;66.90;;;;;;6129152;23;19908;-73
2022/12/09 09:46:41;;;;;;;;;;;10.80;30.30;;;;;;6126749;23;19943;-74
2022/12/09 09:49:10;;;;;;;;;;;10.30;4.30;;;;;;6129059;23;19901;-74
2022/12/09 09:51:36;;;;;;;;;;;8.80;13.90;;;;;;6128086;23;19905;-77
2022/12/09 09:54:01;;;;;;;;;;;7.70;26.10;;;;;;6128652;23;19912;-77
2022/12/09 09:56:27;;;;;;;;;;;7.90;51.10;;;;;;6128661;23;19905;-76
2022/12/09 09:59:08;;;;;;;;;;;8.30;31.10;;;;;;6128716;23;19908;-78
2022/12/09 10:01:35;;;;;;;;;;;8.60;43.00;;;;;;6128650;23;19983;-74
2022/12/09 10:04:16;;;;;;;;;;;9.00;33.80;;;;;;6128496;23;19919;-74
2022/12/09 10:06:52;;;;;;;;;;;8.90;23.50;;;;;;6128655;23;19980;-74
2022/12/09 10:09:21;;;;;;;;;;;8.70;24.20;;;;;;6128912;23;19932;-74
2022/12/09 10:12:14;;;;;;;;;;;8.70;14.00;;;;;;6128636;23;19901;-77
2022/12/09 10:14:43;;;;;;;;;;;8.40;27.10;;;;;;6128609;23;19905;-77
2022/12/09 10:17:27;;;;;;;;;;;8.50;24.60;;;;;;6128379;23;19959;-76
2022/12/09 10:20:13;;;;;;;;;;;8.60;26.30;;;;;;6102583;23;19997;-76
2022/12/09 10:22:59;;;;;;;;;;;8.20;18.50;;;;;;6101741;23;20235;-73
2022/12/09 10:25:24;;;;;;;;;;;9.00;26.30;;;;;;6127565;23;19931;-76
2022/12/09 10:27:54;;;;;;;;;;;10.50;4.90;;;;;;6128274;23;19908;-75
2022/12/09 10:30:21;;;;;;;;;;;10.10;3.80;;;;;;6128458;23;19900;-77
2022/12/09 10:32:47;;;;;;;;;;;10.10;3.20;;;;;;6128106;23;20012;-77
2022/12/09 10:35:14;;;;;;;;;;;11.70;5.60;;;;;;6128252;23;20333;-74
2022/12/09 10:37:40;;;;;;;;;;;14.30;1.00;;;;;;6128146;23;19900;-74
2022/12/09 10:40:08;;;;;;;;;;;14.60;1.00;;;;;;6128255;23;19932;-74
2022/12/09 10:45:26;;;;;;;;;;;12.50;1.00;;;;;;6128077;23;20335;-76
2022/12/09 10:47:52;;;;;;;;;;;11.80;1.00;;;;;;6128164;23;19901;-74
2022/12/09 10:50:36;;;;;;;;;;;12.70;1.00;;;;;;6128300;23;19905;-75
2022/12/09 10:53:06;;;;;;;;;;;11.30;1.00;;;;;;6128116;23;20324;-76
2022/12/09 10:55:34;;;;;;;;;;;10.30;1.00;;;;;;6128775;23;19901;-76
2022/12/09 10:58:28;;;;;;;;;;;9.40;1.00;;;;;;6128532;23;19900;-76
2022/12/09 11:00:59;;;;;;;;;;;9.10;7.40;;;;;;6108775;23;20343;-76
2022/12/09 11:03:29;;;;;;;;;;;11.50;1.00;;;;;;6101568;23;20280;-76
2022/12/09 11:05:56;;;;;;;;;;;12.70;1.00;;;;;;6127927;23;19907;-75
2022/12/09 11:08:21;;;;;;;;;;;12.40;1.00;;;;;;6101932;23;20229;-76
2022/12/09 11:10:48;;;;;;;;;;;12.20;1.00;;;;;;6128270;23;20129;-76
2022/12/09 11:13:15;;;;;;;;;;;11.30;1.00;;;;;;6127822;23;19912;-76
2022/12/09 11:15:43;;;;;;;;;;;11.60;1.00;;;;;;6127696;23;19901;-76
2022/12/09 11:18:25;;;;;;;;;;;12.70;1.00;;;;;;6128056;23;19904;-76
2022/12/09 11:20:56;;;;;;;;;;;12.20;1.00;;;;;;6101778;23;20402;-76
2022/12/09 11:23:21;;;;;;;;;;;11.90;1.00;;;;;;6127663;23;19901;-76
2022/12/09 11:25:52;;;;;;;;;;;13.10;1.00;;;;;;6127827;23;20425;-77
2022/12/09 11:28:23;;;;;;;;;;;14.50;1.00;;;;;;6127735;23;20324;-75
2022/12/09 11:30:51;;;;;;;;;;;14.20;1.00;;;;;;6127728;23;19932;-78
2022/12/09 11:33:24;;;;;;;;;;;16.30;1.00;;;;;;6127675;23;19927;-75
2022/12/09 11:35:52;;;;;;;;;;;18.10;1.00;;;;;;6128384;23;20320;-75
2022/12/09 11:38:32;;;;;;;;;;;19.40;1.00;;;;;;6128253;23;19900;-74
2022/12/09 11:41:02;;;;;;;;;;;17.80;1.00;;;;;;6127712;23;19979;-74
2022/12/09 11:43:31;;;;;;;;;;;16.80;1.00;;;;;;6126283;23;19912;-75
2022/12/09 11:45:57;;;;;;;;;;;17.40;1.00;;;;;;6127705;23;20236;-74
2022/12/09 11:48:27;;;;;;;;;;;17.50;1.00;;;;;;6123286;23;19901;-75
2022/12/09 11:50:54;;;;;;;;;;;19.00;1.00;;;;;;6119790;23;19901;-76
2022/12/09 11:53:26;;;;;;;;;;;18.90;1.00;;;;;;6126172;23;19912;-75
2022/12/09 11:55:55;;;;;;;;;;;19.00;1.00;;;;;;6127491;23;19901;-74
2022/12/09 11:58:35;;;;;;;;;;;19.20;1.00;;;;;;6127353;23;20347;-76
2022/12/09 12:01:08;;;;;;;;;;;18.90;1.00;;;;;;6118457;23;19900;-75
2022/12/09 12:03:37;;;;;;;;;;;18.50;1.00;;;;;;6127048;23;19913;-76
2022/12/09 12:06:10;;;;;;;;;;;19.20;1.00;;;;;;6127330;23;20028;-75
2022/12/09 12:08:42;;;;;;;;;;;19.60;1.00;;;;;;6127350;23;20280;-74
2022/12/09 12:11:12;;;;;;;;;;;18.20;1.00;;;;;;6127263;23;19972;-74
2022/12/09 12:13:43;;;;;;;;;;;17.30;1.00;;;;;;6127019;23;20266;-75
2022/12/09 12:16:17;;;;;;;;;;;17.70;1.00;;;;;;6128099;23;20256;-75
2022/12/09 12:18:54;;;;;;;;;;;19.30;1.00;;;;;;6127411;23;19920;-76
2022/12/09 12:21:28;;;;;;;;;;;19.80;1.00;;;;;;6125169;23;19907;-75
2022/12/09 12:24:09;;;;;;;;;;;19.10;1.00;;;;;;6120146;23;19901;-75
2022/12/09 12:26:43;;;;;;;;;;;19.90;1.00;;;;;;6124357;23;19905;-75
2022/12/09 12:29:15;;;;;;;;;;;19.40;1.00;;;;;;6126924;23;19908;-75
2022/12/09 12:31:43;;;;;;;;;;;18.70;1.00;;;;;;6127228;23;20243;-74
2022/12/09 12:34:27;;;;;;;;;;;18.30;1.00;;;;;;6127066;23;19905;-74
2022/12/09 12:36:59;;;;;;;;;;;19.50;1.00;;;;;;6127244;23;19901;-75
2022/12/09 12:39:33;;;;;;;;;;;18.20;1.00;;;;;;6127487;23;19908;-74
2022/12/09 12:42:18;;;;;;;;;;;18.90;1.00;;;;;;6127814;23;19924;-75
2022/12/09 12:47:59;;;;;;;;;;;20.30;1.00;;;;;;6127045;23;19908;-75
2022/12/09 12:50:33;;;;;;;;;;;20.60;1.00;;;;;;6127048;23;19952;-74
2022/12/09 12:53:08;;;;;;;;;;;20.60;1.00;;;;;;6126973;23;19943;-74
2022/12/09 12:55:37;;;;;;;;;;;20.10;1.00;;;;;;6127173;23;19979;-74
2022/12/09 12:58:04;;;;;;;;;;;19.90;1.00;;;;;;6127070;23;19955;-75
2022/12/09 13:00:40;;;;;;;;;;;20.10;1.00;;;;;;6127102;23;19901;-74
2022/12/09 13:03:25;;;;;;;;;;;19.70;1.00;;;;;;6127147;23;19901;-75
2022/12/09 13:05:52;;;;;;;;;;;20.20;1.00;;;;;;6126993;23;20343;-74
2022/12/09 13:08:18;;;;;;;;;;;19.80;1.00;;;;;;6126960;23;19989;-74
2022/12/09 13:10:49;;;;;;;;;;;20.00;1.00;;;;;;6127064;23;19905;-75
2022/12/09 13:13:23;;;;;;;;;;;19.60;1.00;;;;;;6126907;23;20276;-74
2022/12/09 13:15:50;;;;;;;;;;;19.90;1.00;;;;;;6127075;23;19901;-74
2022/12/09 13:18:27;;;;;;;;;;;19.60;1.00;;;;;;6127027;23;19901;-74
2022/12/09 13:20:53;;;;;;;;;;;19.90;1.00;;;;;;6127064;23;19900;-76
2022/12/09 13:23:37;;;;;;;;;;;20.50;1.00;;;;;;6127163;23;19907;-75
2022/12/09 13:26:05;;;;;;;;;;;20.10;1.00;;;;;;6126980;23;19932;-75
2022/12/09 13:28:31;;;;;;;;;;;21.20;1.00;;;;;;6100999;23;20312;-74
2022/12/09 13:30:57;;;;;;;;;;;20.50;1.00;;;;;;6126896;23;19901;-74
2022/12/09 13:33:33;;;;;;;;;;;20.60;1.00;;;;;;6126759;23;20320;-75
2022/12/09 13:35:59;;;;;;;;;;;21.10;1.00;;;;;;6126898;23;19907;-74
2022/12/09 13:38:25;;;;;;;;;;;21.90;1.00;;;;;;6126859;23;19971;-75
2022/12/09 13:40:50;;;;;;;;;;;21.70;1.00;;;;;;6127000;23;19901;-75
2022/12/09 13:43:20;;;;;;;;;;;21.30;1.00;;;;;;6127171;23;19908;-73
2022/12/09 13:45:51;;;;;;;;;;;20.80;1.00;;;;;;6127176;23;19901;-74
2022/12/09 13:48:17;;;;;;;;;;;21.00;1.00;;;;;;6128735;23;19901;-75
2022/12/09 13:50:42;;;;;;;;;;;21.20;1.00;;;;;;6128977;23;19900;-75
2022/12/09 13:53:20;;;;;;;;;;;21.60;1.00;;;;;;6128627;23;19915;-74
2022/12/09 13:55:48;;;;;;;;;;;21.90;1.00;;;;;;6129239;23;20339;-75
2022/12/09 13:58:35;;;;;;;;;;;20.80;1.00;;;;;;6127949;23;19956;-75
2022/12/09 14:01:04;;;;;;;;;;;20.70;1.00;;;;;;6128824;23;19934;-75
2022/12/09 14:03:31;;;;;;;;;;;21.20;1.00;;;;;;6128125;23;19913;-74
2022/12/09 14:05:59;;;;;;;;;;;21.20;1.00;;;;;;6102365;23;19901;-75
2022/12/09 14:08:30;;;;;;;;;;;21.60;1.00;;;;;;6102737;23;19901;-75
2022/12/09 14:10:57;;;;;;;;;;;21.40;1.00;;;;;;6128385;23;20244;-75
2022/12/09 14:13:22;;;;;;;;;;;21.40;1.00;;;;;;6128404;23;20350;-75
2022/12/09 14:16:11;;;;;;;;;;;21.20;1.00;;;;;;6128768;23;19932;-74
2022/12/09 14:18:36;;;;;;;;;;;21.20;1.00;;;;;;6087434;23;19929;-75
2022/12/09 14:21:17;;;;;;;;;;;21.20;1.00;;;;;;6128390;23;19901;-75
2022/12/09 14:24:01;;;;;;;;;;;21.10;1.00;;;;;;6128564;23;19901;-75
2022/12/09 14:26:36;;;;;;;;;;;20.50;1.00;;;;;;6128283;23;19901;-75
2022/12/09 14:29:02;;;;;;;;;;;20.60;1.00;;;;;;6128500;23;19901;-75
2022/12/09 14:31:51;;;;;;;;;;;20.20;1.00;;;;;;6128733;23;19975;-74
2022/12/09 14:34:29;;;;;;;;;;;20.70;1.00;;;;;;6090673;23;20236;-75
2022/12/09 14:37:08;;;;;;;;;;;20.40;1.00;;;;;;6102340;23;19901;-74
2022/12/09 14:39:56;;;;;;;;;;;20.30;1.00;;;;;;6128455;23;19901;-75
2022/12/09 14:42:26;;;;;;;;;;;20.00;1.00;;;;;;6116357;23;20320;-74
2022/12/09 14:44:55;;;;;;;;;;;20.10;1.00;;;;;;6128037;23;20355;-75
2022/12/09 14:47:31;;;;;;;;;;;20.30;1.00;;;;;;6102243;23;20344;-75
2022/12/09 14:50:12;;;;;;;;;;;20.00;1.00;;;;;;6128507;23;19901;-75